Time;durP1;ratioP1;P1;durP2;ratioP2;P2;SDS_P1;SDS_P2;PMS_P1;PMS_P2;Temp;Humidity;BMP_temperature;BMP_pressure;BME280_temperature;BME280_humidity;BME280_pressure;Samples;Min_cycle;Max_cycle;Signal;HPM_P1;HPM_P2
2022/03/07 00:02:13;;;;;;;;;50.75;38.75;;;;;8.21;39.40;101991.59;5035772;28;45319;-88
2022/03/07 00:04:39;;;;;;;;;44.25;37.00;;;;;7.86;38.65;101931.00;5035396;28;45466;-87
2022/03/07 00:07:04;;;;;;;;;40.75;35.75;;;;;8.51;38.81;102040.78;5035057;28;45392;-87
2022/03/07 00:09:29;;;;;;;;;40.25;35.50;;;;;8.41;39.51;102025.88;5035475;28;45305;-87
2022/03/07 00:11:58;;;;;;;;;41.25;35.00;;;;;8.27;39.21;102004.78;5035500;28;45277;-87
2022/03/07 00:14:23;;;;;;;;;44.25;36.50;;;;;7.70;39.43;101907.34;5035857;28;45587;-87
2022/03/07 00:16:48;;;;;;;;;38.00;34.00;;;;;7.89;38.93;101939.81;5035055;28;46290;-87
2022/03/07 00:19:14;;;;;;;;;43.00;36.75;;;;;8.42;39.32;102038.25;5099765;27;45396;-87
2022/03/07 00:21:39;;;;;;;;;35.50;32.50;;;;;8.39;39.46;102036.50;5063650;27;45525;-87
2022/03/07 00:24:06;;;;;;;;;43.00;35.75;;;;;8.38;39.17;102042.72;5035636;28;45536;-87
2022/03/07 00:26:32;;;;;;;;;45.75;35.00;;;;;7.92;38.85;101978.72;5016082;28;48200;-87
2022/03/07 00:28:57;;;;;;;;;36.25;33.00;;;;;7.99;39.18;101986.56;5017397;28;46085;-87
2022/03/07 00:31:23;;;;;;;;;41.50;36.25;;;;;7.87;39.24;101968.16;5035336;28;45273;-88
2022/03/07 00:33:49;;;;;;;;;47.25;36.25;;;;;8.30;39.16;102046.38;5035637;28;45236;-87
2022/03/07 00:36:15;;;;;;;;;43.50;36.00;;;;;7.82;39.19;101976.16;5017059;28;47088;-87
2022/03/07 00:38:41;;;;;;;;;47.00;36.00;;;;;8.18;39.30;102036.78;5034865;28;45398;-88
2022/03/07 00:41:10;;;;;;;;;45.25;37.50;;;;;7.40;39.23;101905.94;5035203;28;45362;-87
2022/03/07 00:43:36;;;;;;;;;38.00;33.75;;;;;7.37;39.30;101901.56;5032274;28;45317;-87
2022/03/07 00:46:02;;;;;;;;;40.50;35.00;;;;;7.26;39.68;101891.94;5016436;28;47364;-87
2022/03/07 00:48:28;;;;;;;;;39.50;34.50;;;;;7.98;39.58;102022.00;5015234;28;45257;-87
2022/03/07 00:50:53;;;;;;;;;40.00;34.25;;;;;7.22;39.65;101895.53;5015341;28;45155;-87
2022/03/07 00:53:22;;;;;;;;;44.75;37.25;;;;;7.43;39.91;101921.81;5015262;28;45666;-87
2022/03/07 00:55:47;;;;;;;;;44.00;35.00;;;;;7.99;39.39;102031.69;5014866;28;46382;-87
2022/03/07 00:58:14;;;;;;;;;44.75;36.50;;;;;8.04;39.93;102042.25;5013484;28;45445;-87
2022/03/07 01:00:40;;;;;;;;;36.50;30.25;;;;;7.31;39.86;101924.59;5015063;28;45436;-87
2022/03/07 01:03:06;;;;;;;;;43.50;34.75;;;;;7.99;39.83;102046.75;5013824;28;45459;-87
2022/03/07 01:05:32;;;;;;;;;39.75;34.00;;;;;7.70;40.22;102007.28;5013382;28;47569;-87
2022/03/07 01:07:58;;;;;;;;;40.50;34.75;;;;;7.82;40.03;102025.72;5026557;28;45286;-87
2022/03/07 01:10:23;;;;;;;;;37.75;32.50;;;;;7.72;40.11;102002.81;5034750;28;45283;-87
2022/03/07 01:12:49;;;;;;;;;37.00;32.25;;;;;7.91;39.84;102044.16;5035361;28;45588;-87
2022/03/07 01:15:15;;;;;;;;;46.75;36.75;;;;;7.77;39.84;102027.53;5034474;28;45509;-87
2022/03/07 01:17:41;;;;;;;;;38.00;33.50;;;;;7.85;39.92;102040.72;5034743;28;45275;-87
2022/03/07 01:20:08;;;;;;;;;41.25;35.50;;;;;7.45;40.15;101975.72;5020108;28;45439;-87
2022/03/07 01:22:34;;;;;;;;;33.00;32.00;;;;;7.50;40.24;101979.19;5014820;28;45619;-87
2022/03/07 01:25:01;;;;;;;;;40.50;33.50;;;;;7.50;40.27;101991.59;5014362;27;45390;-87
2022/03/07 01:27:26;;;;;;;;;29.75;29.25;;;;;7.44;39.99;101973.94;5014433;27;45252;-87
2022/03/07 01:29:51;;;;;;;;;40.50;35.00;;;;;7.28;40.31;101953.78;4996848;28;45295;-87
2022/03/07 01:32:17;;;;;;;;;40.75;34.75;;;;;7.24;39.95;101952.09;4996979;28;45382;-87
2022/03/07 01:34:42;;;;;;;;;38.00;32.25;;;;;7.22;39.91;101946.78;4996531;28;47896;-87
2022/03/07 01:37:07;;;;;;;;;40.75;34.50;;;;;7.26;39.77;101956.47;4996522;28;45372;-87
2022/03/07 01:39:33;;;;;;;;;33.75;32.25;;;;;7.22;40.19;101949.44;5016912;27;45775;-87
2022/03/07 01:41:58;;;;;;;;;37.50;32.00;;;;;7.53;40.51;102010.13;5022379;27;45433;-87
2022/03/07 01:44:27;;;;;;;;;39.00;32.75;;;;;6.95;39.95;101910.81;5017870;27;45471;-87
2022/03/07 01:46:52;;;;;;;;;34.25;32.50;;;;;7.66;40.22;102027.66;5022036;27;45292;-87
2022/03/07 01:49:19;;;;;;;;;47.75;35.00;;;;;6.75;39.95;101880.09;5121997;27;45402;-87
2022/03/07 01:51:46;;;;;;;;;39.25;31.50;;;;;6.84;40.41;101910.94;5122624;27;45438;-87
2022/03/07 01:54:20;;;;;;;;;39.50;34.00;;;;;7.12;40.10;101937.19;5085773;27;48127;-87
2022/03/07 01:56:47;;;;;;;;;40.75;34.00;;;;;7.56;40.17;102021.59;4999200;28;45456;-87
2022/03/07 01:59:15;;;;;;;;;42.00;32.25;;;;;6.65;40.00;101864.28;5017219;28;45391;-87
2022/03/07 02:01:41;;;;;;;;;37.00;30.25;;;;;7.09;39.89;101929.25;4999891;28;45516;-87
2022/03/07 02:04:07;;;;;;;;;36.50;33.25;;;;;6.94;40.25;101915.25;4999269;28;46954;-87
2022/03/07 02:06:32;;;;;;;;;38.00;33.00;;;;;7.09;39.93;101926.59;5016629;28;45716;-87
2022/03/07 02:08:58;;;;;;;;;37.00;34.75;;;;;7.29;40.31;101975.00;5037261;27;45401;-87
2022/03/07 02:11:24;;;;;;;;;31.00;28.25;;;;;7.42;40.34;101996.06;5019250;28;45614;-87
2022/03/07 02:13:50;;;;;;;;;38.00;29.25;;;;;7.05;40.45;101933.72;5027709;28;47934;-87
2022/03/07 02:16:17;;;;;;;;;35.00;31.25;;;;;7.38;40.39;101989.94;5037997;28;45454;-87
2022/03/07 02:18:43;;;;;;;;;33.25;28.50;;;;;6.98;39.96;101919.63;5045606;28;45369;-87
2022/03/07 02:21:11;;;;;;;;;35.25;30.25;;;;;7.36;40.51;101986.44;5019334;28;45642;-88
2022/03/07 02:23:37;;;;;;;;;32.75;30.50;;;;;7.43;40.66;102008.47;5036912;28;45332;-87
2022/03/07 02:26:16;;;;;;;;;37.25;31.00;;;;;7.42;40.21;101993.44;5018851;28;45632;-87
2022/03/07 02:28:43;;;;;;;;;32.00;29.75;;;;;7.43;40.47;101996.06;5018753;28;45381;-87
2022/03/07 02:31:10;;;;;;;;;36.50;29.00;;;;;6.98;40.37;101932.88;5037080;28;45464;-87
2022/03/07 02:33:36;;;;;;;;;32.00;30.50;;;;;6.97;40.65;101923.16;5036501;28;45381;-87
2022/03/07 02:36:02;;;;;;;;;37.00;32.75;;;;;6.78;40.25;101884.50;5036630;28;45364;-87
2022/03/07 02:38:27;;;;;;;;;35.25;31.50;;;;;6.98;40.54;101934.66;5036467;28;45403;-87
2022/03/07 02:40:53;;;;;;;;;33.75;30.25;;;;;6.30;40.48;101821.38;5035692;28;45545;-87
2022/03/07 02:43:19;;;;;;;;;32.25;27.75;;;;;6.71;40.74;101881.03;5045098;28;46184;-87
2022/03/07 02:45:45;;;;;;;;;34.25;24.75;;;;;6.45;40.50;101854.78;5015540;28;45376;-87
2022/03/07 02:48:10;;;;;;;;;34.75;32.25;;;;;7.15;40.53;101977.78;4999218;28;45366;-87
2022/03/07 02:50:36;;;;;;;;;32.00;30.00;;;;;6.50;40.54;101850.31;5016037;27;45646;-86
2022/03/07 02:53:02;;;;;;;;;32.00;27.75;;;;;6.26;40.62;101817.00;5016366;28;45469;-87
2022/03/07 02:55:28;;;;;;;;;37.75;28.00;;;;;6.85;41.08;101919.75;5014657;28;45238;-87
2022/03/07 02:57:54;;;;;;;;;29.75;29.00;;;;;6.41;40.96;101853.03;4998547;28;45350;-87
2022/03/07 03:00:19;;;;;;;;;32.00;28.25;;;;;6.24;40.72;101816.13;5032668;28;45236;-87
2022/03/07 03:02:45;;;;;;;;;34.00;29.75;;;;;6.71;41.19;101902.22;5036027;28;46218;-87
2022/03/07 03:05:12;;;;;;;;;36.75;31.75;;;;;6.29;41.30;101843.44;5018451;28;45314;-87
2022/03/07 03:07:38;;;;;;;;;34.50;33.00;;;;;6.42;40.91;101865.41;5018197;28;45479;-87
2022/03/07 03:10:04;;;;;;;;;29.75;27.00;;;;;7.07;41.00;101977.00;5018567;28;45468;-87
2022/03/07 03:12:30;;;;;;;;;32.50;30.50;;;;;6.34;41.18;101853.97;5035867;28;46656;-87
2022/03/07 03:14:58;;;;;;;;;27.75;27.50;;;;;6.34;41.15;101856.63;5036107;28;45423;-87
2022/03/07 03:17:24;;;;;;;;;30.75;29.00;;;;;6.05;41.05;101809.22;5018246;28;45276;-87
2022/03/07 03:19:50;;;;;;;;;31.50;25.25;;;;;6.70;41.36;101926.09;5105331;27;45271;-87
2022/03/07 03:22:16;;;;;;;;;30.25;27.50;;;;;5.99;41.33;101801.31;5018469;27;47942;-86
2022/03/07 03:24:41;;;;;;;;;31.25;27.25;;;;;6.30;41.48;101853.16;5105062;27;45305;-87
2022/03/07 03:27:06;;;;;;;;;34.50;32.00;;;;;6.83;41.27;101954.22;5036247;28;45360;-87
2022/03/07 03:29:32;;;;;;;;;31.50;28.25;;;;;6.49;41.23;101890.94;5036489;28;45323;-87
2022/03/07 03:31:57;;;;;;;;;28.25;27.00;;;;;6.16;41.48;101840.88;5035940;28;45524;-87
2022/03/07 03:34:23;;;;;;;;;28.50;27.25;;;;;6.26;41.36;101858.47;5104943;27;45905;-87
2022/03/07 03:36:48;;;;;;;;;31.00;26.75;;;;;5.98;41.39;101821.63;5104923;27;45519;-86
2022/03/07 03:39:13;;;;;;;;;30.50;28.50;;;;;5.78;41.10;101775.88;5036275;28;45527;-87
2022/03/07 03:41:39;;;;;;;;;40.00;31.75;;;;;6.11;41.61;101844.47;5021095;28;47106;-87
2022/03/07 03:44:04;;;;;;;;;29.50;27.00;;;;;6.45;41.71;101926.28;5038074;28;45438;-87
2022/03/07 03:46:30;;;;;;;;;25.50;24.50;;;;;6.27;41.76;101881.41;5037911;28;45273;-87
2022/03/07 03:48:58;;;;;;;;;32.50;27.75;;;;;6.56;41.44;101950.03;5056193;28;45379;-87
2022/03/07 03:51:23;;;;;;;;;34.00;26.75;;;;;5.85;41.71;101820.81;5036180;27;48112;-88
2022/03/07 03:53:49;;;;;;;;;33.00;28.25;;;;;5.72;41.95;101812.06;5023303;27;45847;-87
2022/03/07 03:56:14;;;;;;;;;35.25;29.50;;;;;6.36;41.66;101918.41;5055691;28;45384;-87
2022/03/07 03:58:39;;;;;;;;;29.25;28.25;;;;;6.15;41.61;101884.13;5037115;28;45385;-87
2022/03/07 04:01:05;;;;;;;;;31.00;27.25;;;;;6.15;41.63;101886.78;5036641;28;46071;-86
2022/03/07 04:03:30;;;;;;;;;30.25;28.50;;;;;6.16;41.72;101899.13;5037098;28;45754;-87
2022/03/07 04:05:56;;;;;;;;;32.75;32.50;;;;;6.57;41.65;101974.75;5055434;28;45362;-87
2022/03/07 04:08:22;;;;;;;;;35.00;29.50;;;;;6.48;42.06;101971.25;5037559;28;45581;-87
2022/03/07 04:10:47;;;;;;;;;32.50;30.50;;;;;6.11;42.09;101894.75;5027885;28;48337;-87
2022/03/07 04:13:13;;;;;;;;;29.25;27.50;;;;;5.85;41.94;101852.56;5014119;28;45480;-87
2022/03/07 04:15:39;;;;;;;;;32.75;29.00;;;;;6.53;41.95;101981.81;5015447;28;45521;-87
2022/03/07 04:18:06;;;;;;;;;36.00;30.25;;;;;6.25;42.33;101926.44;5047080;27;45570;-87
2022/03/07 04:20:32;;;;;;;;;34.00;30.50;;;;;6.51;41.89;101976.56;5100625;27;46260;-87
2022/03/07 04:22:58;;;;;;;;;35.00;28.25;;;;;6.05;41.92;101905.38;5119545;27;45482;-87
2022/03/07 04:25:23;;;;;;;;;31.50;29.75;;;;;6.49;42.04;101982.75;5118852;27;45404;-87
2022/03/07 04:27:48;;;;;;;;;39.50;33.25;;;;;5.96;42.24;101902.78;5101122;27;45408;-87
2022/03/07 04:30:14;;;;;;;;;35.75;28.50;;;;;6.00;42.20;101907.19;5069457;27;45285;-87
2022/03/07 04:32:40;;;;;;;;;29.00;28.75;;;;;5.93;42.69;101894.84;5055262;27;45183;-86
2022/03/07 04:35:08;;;;;;;;;31.50;29.50;;;;;6.30;42.29;101963.47;5050939;28;45275;-86
2022/03/07 04:37:34;;;;;;;;;30.25;27.00;;;;;6.43;42.47;101981.00;5035269;28;45432;-87
2022/03/07 04:39:59;;;;;;;;;35.50;29.75;;;;;6.32;42.54;101973.16;5013398;28;46523;-87
2022/03/07 04:42:25;;;;;;;;;36.00;30.25;;;;;6.37;42.34;101978.44;5013563;28;45389;-86
2022/03/07 04:44:50;;;;;;;;;32.00;29.50;;;;;6.06;42.79;101936.25;5013854;28;45350;-87
2022/03/07 04:47:15;;;;;;;;;32.75;29.50;;;;;5.69;42.64;101869.41;5015457;28;45358;-86
2022/03/07 04:49:41;;;;;;;;;29.75;28.75;;;;;5.67;42.70;101874.69;5014960;28;46283;-87
2022/03/07 04:52:07;;;;;;;;;27.25;27.25;;;;;5.83;42.38;101901.94;5013012;28;45485;-87
2022/03/07 04:54:32;;;;;;;;;30.00;28.75;;;;;6.31;42.81;101987.28;5013566;28;45258;-87
2022/03/07 04:56:58;;;;;;;;;32.50;27.50;;;;;6.23;42.21;101975.84;5017240;28;45307;-87
2022/03/07 04:59:23;;;;;;;;;35.50;28.50;;;;;5.74;42.51;101899.34;5034894;28;45254;-87
2022/03/07 05:01:48;;;;;;;;;29.50;25.25;;;;;5.82;42.63;101915.19;5034804;28;45352;-87
2022/03/07 05:04:14;;;;;;;;;25.25;24.00;;;;;5.35;42.63;101827.25;5034854;28;45273;-87
2022/03/07 05:06:39;;;;;;;;;28.75;25.75;;;;;6.24;42.81;101988.19;5052288;28;45288;-87
2022/03/07 05:09:04;;;;;;;;;31.75;29.25;;;;;6.21;42.63;101990.00;5036363;28;48606;-87
2022/03/07 05:11:30;;;;;;;;;35.25;30.00;;;;;6.18;42.52;101990.00;5036782;28;45461;-87
2022/03/07 05:13:55;;;;;;;;;41.50;34.50;;;;;6.16;42.73;101995.31;5038396;28;45412;-87
2022/03/07 05:16:21;;;;;;;;;36.50;31.75;;;;;5.76;42.58;101929.31;5040026;28;45387;-87
2022/03/07 05:18:46;;;;;;;;;32.25;27.50;;;;;5.70;42.93;101917.00;5039640;28;47526;-87
2022/03/07 05:21:11;;;;;;;;;28.75;28.25;;;;;5.97;42.84;101962.78;5039541;28;45432;-87
2022/03/07 05:23:38;;;;;;;;;33.50;32.25;;;;;5.61;42.75;101903.81;5040115;27;45452;-87
2022/03/07 05:26:04;;;;;;;;;30.75;29.25;;;;;5.81;42.57;101939.88;5049185;27;45522;-87
2022/03/07 05:28:29;;;;;;;;;33.25;27.25;;;;;5.55;42.65;101895.91;5037384;28;45398;-87
2022/03/07 05:30:55;;;;;;;;;27.00;27.00;;;;;5.45;42.76;101878.31;5019740;28;45427;-87
2022/03/07 05:33:20;;;;;;;;;38.25;33.25;;;;;5.06;42.84;101819.47;5037407;28;45482;-87
2022/03/07 05:35:46;;;;;;;;;37.00;31.00;;;;;5.52;43.06;101909.13;5098043;27;45475;-87
2022/03/07 05:38:11;;;;;;;;;33.25;29.00;;;;;5.38;43.11;101885.38;5019261;28;47975;-87
2022/03/07 05:40:36;;;;;;;;;32.00;30.50;;;;;5.98;43.35;101990.97;5037169;27;45348;-87
2022/03/07 05:43:02;;;;;;;;;30.75;28.00;;;;;5.17;42.98;101856.41;5019562;27;45304;-86
2022/03/07 05:45:27;;;;;;;;;33.25;29.25;;;;;5.17;43.06;101857.28;5037363;28;45579;-87
2022/03/07 05:47:53;;;;;;;;;32.25;30.50;;;;;5.43;43.56;101909.16;5019207;28;47332;-87
2022/03/07 05:50:21;;;;;;;;;38.25;30.00;;;;;5.75;43.56;101956.66;5036719;28;45182;-86
2022/03/07 05:52:46;;;;;;;;;38.50;30.25;;;;;5.15;43.44;101855.53;5019531;27;45475;-86
2022/03/07 05:55:12;;;;;;;;;33.75;25.50;;;;;4.83;43.57;101798.41;5073195;27;45619;-86
2022/03/07 05:57:38;;;;;;;;;33.25;28.50;;;;;5.29;43.29;101883.69;5059250;27;48337;-85
2022/03/07 06:00:06;;;;;;;;;32.25;30.75;;;;;5.18;43.39;101856.41;5017019;28;45456;-86
2022/03/07 06:02:31;;;;;;;;;36.00;32.00;;;;;5.22;43.42;101881.03;5018882;28;45319;-86
2022/03/07 06:04:56;;;;;;;;;35.00;31.50;;;;;5.20;43.34;101864.34;5041606;28;45331;-86
2022/03/07 06:07:29;;;;;;;;;37.00;33.50;;;;;5.24;43.98;101885.47;5017559;27;47460;-86
2022/03/07 06:12:47;;;;;;;;;38.50;32.50;;;;;5.67;43.07;101956.69;5078460;27;45334;-83
2022/03/07 06:15:13;;;;;;;;;41.25;34.25;;;;;5.70;43.40;101972.53;5076608;28;45572;-86
2022/03/07 06:17:50;;;;;;;;;36.75;32.75;;;;;5.35;43.59;101914.50;5077302;28;47870;-84
2022/03/07 06:20:20;;;;;;;;;41.25;36.50;;;;;5.86;43.46;102001.59;5065810;28;45714;-84
2022/03/07 06:22:45;;;;;;;;;38.75;32.75;;;;;5.80;43.48;101994.53;5061180;28;45460;-85
2022/03/07 06:25:19;;;;;;;;;38.50;35.75;;;;;5.83;43.51;102005.13;5075838;28;45650;-84
2022/03/07 06:27:54;;;;;;;;;36.75;29.75;;;;;5.85;43.36;101999.81;5060072;28;46719;-84
2022/03/07 06:30:19;;;;;;;;;30.25;30.00;;;;;4.95;43.12;101837.09;5053098;28;45590;-85
2022/03/07 06:32:45;;;;;;;;;39.25;36.00;;;;;5.87;43.69;102008.63;5077612;28;45484;-87
2022/03/07 06:35:14;;;;;;;;;41.00;33.25;;;;;5.22;43.42;101905.72;5046492;28;45580;-87
2022/03/07 06:37:52;;;;;;;;;40.50;35.25;;;;;5.29;43.26;101918.03;5053008;28;47147;-91
2022/03/07 06:40:23;;;;;;;;;40.00;34.00;;;;;5.86;43.48;101997.19;5062754;27;45794;-90
2022/03/07 06:42:49;;;;;;;;;35.50;32.00;;;;;5.55;43.68;101942.63;5077508;27;45468;-88
2022/03/07 06:45:16;;;;;;;;;38.00;35.75;;;;;5.92;43.40;102006.84;5078336;27;45683;-93
2022/03/07 06:47:44;;;;;;;;;43.50;36.50;;;;;5.26;43.41;101904.81;5060381;28;47897;-92
2022/03/07 06:50:10;;;;;;;;;43.75;34.25;;;;;5.72;43.44;101988.41;5032759;28;45630;-90
2022/03/07 06:52:36;;;;;;;;;29.25;27.50;;;;;5.33;43.30;101921.53;5037145;27;45259;-87
2022/03/07 06:55:02;;;;;;;;;30.50;28.50;;;;;5.60;43.90;102015.78;5016411;27;45534;-84
2022/03/07 06:57:27;;;;;;;;;43.25;35.75;;;;;5.33;44.02;101987.63;5025362;28;46422;-83
2022/03/07 06:59:52;;;;;;;;;35.00;32.50;;;;;5.27;44.09;101979.72;5025651;28;45462;-84
2022/03/07 07:02:18;;;;;;;;;46.50;34.25;;;;;5.23;44.49;101989.41;5025437;28;45415;-82
2022/03/07 07:04:43;;;;;;;;;38.75;36.25;;;;;5.34;44.43;102005.28;5057136;27;45584;-83
2022/03/07 07:07:09;;;;;;;;;82.00;63.75;;;;;5.07;44.81;101951.56;5014186;27;48236;-84
2022/03/07 07:09:34;;;;;;;;;50.00;39.50;;;;;5.34;44.58;102007.00;5023004;28;45534;-80
2022/03/07 07:12:00;;;;;;;;;49.75;37.00;;;;;5.28;44.95;102019.34;5026093;28;45498;-79
2022/03/07 07:14:25;;;;;;;;;39.25;36.00;;;;;5.12;44.63;102000.88;5027151;28;45516;-79
2022/03/07 07:16:51;;;;;;;;;40.25;34.50;;;;;5.18;45.15;102016.75;5023301;28;45493;-81
2022/03/07 07:19:16;;;;;;;;;39.00;36.25;;;;;5.15;45.48;102012.34;5028120;27;45416;-80
2022/03/07 07:21:41;;;;;;;;;43.75;35.25;;;;;5.08;45.30;102000.03;5023838;27;45487;-80
2022/03/07 07:24:08;;;;;;;;;34.50;30.75;;;;;5.13;44.77;101997.34;5028819;28;45585;-80
2022/03/07 07:26:33;;;;;;;;;41.25;34.75;;;;;5.14;44.86;101993.84;5008648;28;47462;-80
2022/03/07 07:28:59;;;;;;;;;40.00;35.00;;;;;5.06;44.96;101985.94;5023102;28;45419;-79
2022/03/07 07:31:24;;;;;;;;;40.50;34.25;;;;;5.07;44.87;101990.31;5026838;28;45450;-80
2022/03/07 07:33:49;;;;;;;;;37.00;30.75;;;;;5.22;44.95;102016.75;5026868;28;45538;-80
2022/03/07 07:36:15;;;;;;;;;43.50;35.75;;;;;5.15;44.50;101995.59;5025129;28;45471;-80
2022/03/07 07:38:40;;;;;;;;;39.50;33.50;;;;;5.19;44.71;102002.63;5030329;28;45571;-81
2022/03/07 07:41:06;;;;;;;;;45.25;36.50;;;;;5.28;45.37;102022.00;5025655;28;45728;-82
2022/03/07 07:43:32;;;;;;;;;44.50;34.25;;;;;5.30;44.84;102016.72;5029968;28;45437;-83
2022/03/07 07:45:57;;;;;;;;;37.50;30.25;;;;;5.44;44.56;102022.00;5018587;28;46035;-85
2022/03/07 07:48:23;;;;;;;;;45.00;36.25;;;;;4.96;44.40;101932.19;5011909;27;45425;-86
2022/03/07 07:50:48;;;;;;;;;38.50;33.25;;;;;5.12;44.61;101962.13;5023397;27;45450;-85
2022/03/07 07:53:13;;;;;;;;;37.00;35.00;;;;;5.32;44.25;101974.44;5008134;28;45492;-85
2022/03/07 07:55:39;;;;;;;;;35.75;34.00;;;;;5.42;44.13;101982.31;5016747;27;48174;-86
2022/03/07 07:58:04;;;;;;;;;36.75;32.00;;;;;5.31;44.01;101933.00;5024983;28;45394;-86
2022/03/07 08:00:29;;;;;;;;;46.25;35.00;;;;;5.50;43.51;101969.06;5005986;28;45493;-86
2022/03/07 08:02:55;;;;;;;;;35.25;30.75;;;;;5.80;43.59;101996.31;5026198;28;45436;-86
2022/03/07 08:05:20;;;;;;;;;39.50;34.75;;;;;5.88;43.27;102007.75;5025341;28;46404;-85
2022/03/07 08:07:47;;;;;;;;;37.75;34.00;;;;;5.68;43.53;101954.91;5061038;27;46032;-86
2022/03/07 08:10:14;;;;;;;;;37.50;34.00;;;;;5.96;42.76;101999.81;5035589;27;45386;-84
2022/03/07 08:12:40;;;;;;;;;44.00;35.00;;;;;5.77;43.13;102007.78;5017003;27;45420;-91
2022/03/07 08:15:11;;;;;;;;;44.75;36.25;;;;;5.44;44.21;101975.28;5030868;27;45513;-89
2022/03/07 08:17:49;;;;;;;;;44.75;34.00;;;;;5.97;42.99;101985.69;5013508;28;45481;-88
2022/03/07 08:20:21;;;;;;;;;43.50;35.00;;;;;5.71;42.58;101894.06;5016886;27;45294;-89
2022/03/07 08:22:47;;;;;;;;;36.25;33.00;;;;;6.10;41.76;101937.09;5014954;27;45436;-88
2022/03/07 08:25:13;;;;;;;;;36.50;31.75;;;;;6.20;41.81;101922.91;5015244;27;46364;-88
2022/03/07 08:27:39;;;;;;;;;33.50;28.50;;;;;6.54;41.08;101965.06;4995717;28;45766;-89
2022/03/07 08:30:08;;;;;;;;;41.25;35.50;;;;;6.89;40.99;101993.94;5017328;28;45428;-88
2022/03/07 08:32:35;;;;;;;;;38.75;32.00;;;;;7.02;41.15;102000.00;4999338;28;45340;-88
2022/03/07 08:35:01;;;;;;;;;33.25;28.75;;;;;6.40;40.02;101888.38;5015764;27;45531;-90
2022/03/07 08:37:26;;;;;;;;;39.25;35.25;;;;;6.65;40.24;101923.47;5017858;27;45514;-91
2022/03/07 08:39:51;;;;;;;;;33.25;24.00;;;;;6.74;40.40;101938.41;5004288;27;45559;-91
2022/03/07 08:42:19;;;;;;;;;35.75;30.25;;;;;6.68;39.87;101893.44;5013288;27;45491;-89
2022/03/07 08:44:44;;;;;;;;;34.75;30.00;;;;;6.57;39.73;101858.22;5018903;28;47200;-87
2022/03/07 08:47:10;;;;;;;;;35.75;32.50;;;;;6.57;39.84;101831.72;5018646;27;45274;-88
2022/03/07 08:49:35;;;;;;;;;39.75;34.50;;;;;6.95;39.96;101900.22;5017372;27;45491;-92
2022/03/07 08:52:01;;;;;;;;;38.25;30.75;;;;;7.33;39.88;101917.50;5032834;27;45360;-89
2022/03/07 08:54:26;;;;;;;;;42.75;32.25;;;;;7.03;38.99;101871.00;5005132;27;47315;-90
2022/03/07 08:56:52;;;;;;;;;34.25;29.00;;;;;7.56;38.99;101943.75;5017395;27;45829;-90
2022/03/07 08:59:17;;;;;;;;;30.00;29.50;;;;;7.56;38.92;101912.81;5022927;27;45581;-90
2022/03/07 09:01:42;;;;;;;;;32.50;30.00;;;;;7.82;38.43;101935.50;5008540;28;45639;-90
2022/03/07 09:04:08;;;;;;;;;37.25;33.50;;;;;7.86;38.12;101918.59;5011955;28;46650;-89
2022/03/07 09:06:33;;;;;;;;;42.50;34.25;;;;;8.74;37.33;101973.13;5018405;27;45530;-89
2022/03/07 09:08:58;;;;;;;;;46.00;35.00;;;;;8.81;36.76;101919.81;5089399;27;45496;-90
2022/03/07 09:11:24;;;;;;;;;39.75;33.75;;;;;9.03;36.68;101920.31;5097746;27;45482;-91
2022/03/07 09:13:49;;;;;;;;;44.25;34.00;;;;;9.45;35.69;101941.69;5098320;27;48128;-91
2022/03/07 09:16:14;;;;;;;;;35.50;31.75;;;;;9.80;35.07;101925.91;5097138;27;45840;-91
2022/03/07 09:18:41;;;;;;;;;34.25;31.50;;;;;10.28;34.73;101912.41;5117189;27;45481;-90
2022/03/07 09:21:07;;;;;;;;;30.25;29.75;;;;;10.84;33.67;101904.81;5117893;27;45466;-91
2022/03/07 09:23:37;;;;;;;;;33.50;29.25;;;;;11.32;32.27;101900.84;5098310;27;47320;-91
2022/03/07 09:26:04;;;;;;;;;35.25;30.50;;;;;11.81;32.25;101900.28;5110520;27;45552;-91
2022/03/07 09:28:29;;;;;;;;;33.25;31.50;;;;;12.35;31.56;101905.78;5113581;27;45365;-91
2022/03/07 09:30:54;;;;;;;;;29.50;28.50;;;;;12.76;31.23;101915.09;5091904;27;45539;-90
2022/03/07 09:33:20;;;;;;;;;42.50;36.00;;;;;13.15;30.51;101916.44;5115393;27;46610;-92
2022/03/07 09:35:45;;;;;;;;;29.67;27.67;;;;;13.32;29.79;101892.63;5098751;27;45425;-92
2022/03/07 09:38:11;;;;;;;;;26.33;25.67;;;;;13.58;29.32;101891.66;5115539;27;45499;-91
2022/03/07 09:40:36;;;;;;;;;30.25;30.25;;;;;13.67;27.37;101906.50;5090674;27;45718;-93
2022/03/07 09:43:03;;;;;;;;;30.33;29.00;;;;;13.61;28.79;101861.22;5096282;27;48067;-92
2022/03/07 09:45:28;;;;;;;;;34.33;31.67;;;;;14.06;28.36;101884.44;5096743;27;45879;-91
2022/03/07 09:47:56;;;;;;;;;34.00;29.33;;;;;14.59;28.46;101939.56;5116372;27;45559;-91
2022/03/07 09:50:22;;;;;;;;;26.33;23.67;;;;;14.48;27.61;101897.03;5099649;27;45531;-92
2022/03/07 09:52:47;;;;;;;;;35.00;30.00;;;;;14.55;27.12;101915.53;5098323;27;48217;-89
2022/03/07 09:55:16;;;;;;;;;31.33;24.33;;;;;14.41;28.16;101877.66;5118405;27;45545;-89
2022/03/07 09:57:42;;;;;;;;;29.00;25.67;;;;;14.52;27.59;101870.03;5117893;27;45416;-89
2022/03/07 10:00:09;;;;;;;;;32.67;27.33;;;;;14.63;27.18;101860.66;5120659;27;45489;-89
2022/03/07 10:02:34;;;;;;;;;30.67;25.00;;;;;14.78;27.56;101873.44;5121488;27;46309;-88
2022/03/07 10:05:01;;;;;;;;;31.33;28.33;;;;;15.23;26.90;101930.56;5111064;27;45472;-88
2022/03/07 10:07:27;;;;;;;;;30.67;30.67;;;;;14.88;26.74;101855.13;5098878;27;45325;-88
2022/03/07 10:10:06;;;;;;;;;40.00;33.00;;;;;15.12;26.74;101856.69;5037191;28;45584;-88
2022/03/07 10:12:32;;;;;;;;;33.00;27.33;;;;;15.35;26.36;101861.03;5036199;28;45523;-90
2022/03/07 10:14:57;;;;;;;;;24.00;22.00;;;;;16.22;25.88;101927.78;5018277;28;45823;-91
2022/03/07 10:17:29;;;;;;;;;30.33;28.33;;;;;16.45;25.15;101800.19;5065043;27;45491;-88
2022/03/07 10:19:56;;;;;;;;;34.33;27.33;;;;;19.26;23.50;101908.47;5057006;27;45399;-88
2022/03/07 10:22:26;;;;;;;;;27.33;23.33;;;;;21.35;20.72;101828.75;5036874;28;46257;-88
2022/03/07 10:25:03;;;;;;;;;27.00;25.33;;;;;23.62;19.23;101857.63;5020941;27;45282;-88
2022/03/07 10:27:37;;;;;;;;;26.67;25.00;;;;;25.26;16.62;101886.56;5036580;28;45424;-88
2022/03/07 10:30:04;;;;;;;;;32.67;28.33;;;;;26.46;16.59;101884.81;5036692;28;45584;-89
2022/03/07 10:32:29;;;;;;;;;28.00;26.00;;;;;27.11;15.91;101815.78;5036377;28;47016;-89
2022/03/07 10:34:57;;;;;;;;;29.00;27.00;;;;;28.43;14.29;101884.91;5018221;27;45333;-89
2022/03/07 10:37:32;;;;;;;;;23.33;23.00;;;;;28.50;14.26;101801.03;5037046;27;45464;-90
2022/03/07 10:39:58;;;;;;;;;27.00;26.33;;;;;29.08;13.21;101787.69;5053439;27;45622;-90
2022/03/07 10:42:23;;;;;;;;;26.33;24.00;;;;;30.14;12.78;101869.75;5082722;27;47446;-88
2022/03/07 10:44:48;;;;;;;;;29.33;26.00;;;;;30.65;13.35;101840.25;5018344;27;46003;-88
2022/03/07 10:47:15;;;;;;;;;31.00;26.00;;;;;30.97;13.07;101780.69;5036411;28;45283;-88
2022/03/07 10:49:49;;;;;;;;;29.33;25.00;;;;;32.17;12.43;101862.22;5035839;28;45406;-89
2022/03/07 10:52:15;;;;;;;;;23.67;21.67;;;;;32.14;11.72;101789.97;5013768;28;47413;-89
2022/03/07 10:54:40;;;;;;;;;22.33;22.33;;;;;31.93;11.57;101752.84;5034008;28;45347;-89
2022/03/07 10:57:07;;;;;;;;;25.00;23.00;;;;;32.58;10.37;101842.59;5014497;28;45345;-89
2022/03/07 10:59:35;;;;;;;;;26.67;25.33;;;;;32.46;10.57;101819.22;5035859;27;45478;-89
2022/03/07 11:02:04;;;;;;;;;23.33;23.33;;;;;31.95;11.57;101814.22;5034527;28;45507;-89
2022/03/07 11:04:30;;;;;;;;;25.33;25.00;;;;;31.70;9.75;101805.25;5014535;28;45356;-89
2022/03/07 11:06:55;;;;;;;;;26.33;24.00;;;;;31.60;11.17;101831.28;5017199;28;45481;-89
2022/03/07 11:09:21;;;;;;;;;20.00;19.67;;;;;30.99;11.40;101787.72;5036428;28;45328;-89
2022/03/07 11:11:46;;;;;;;;;23.33;22.67;;;;;30.64;11.40;101769.72;5027925;27;47216;-90
2022/03/07 11:14:13;;;;;;;;;24.67;24.67;;;;;30.45;10.68;101837.81;5036131;28;45414;-89
2022/03/07 11:16:39;;;;;;;;;29.67;22.33;;;;;29.51;12.56;101780.38;5035780;28;45413;-89